Search for airport 
image banner adimage banner adimage banner ad
image banner ad

1PA9 - Schadels

Located in Klingerstown, United States

ICAO - 1PA9, IATA -

Data provided by Airmate  

General information

Coordinates: N40°40'0" W76°40'59"
Elevation is 700 feet MSL.
Magnetic variation is -11° East
View others Airports in Pennsylvania

Operational data

Special qualification required
Current time UTC:
Current local time:
Weather at : KSEG - Penn Valley ( 23 km )
METAR: KSEG 091353Z AUTO 00000KT 10SM OVC100 08/04 A3008 RMK AO2 SLP188 T00780039
View NOTAMs / SUP AIP / TFR affecting this airport [VIEW]
Communications frequencies: [VIEW]

Runways:

RWY identifierQFULength (ft)Width (ft)SurfaceLDA (ft)
E1350110GRASS
W1350110GRASS

Airport contact information

Address: Klingerstown United States

Satellite view of 1PA9